sensor_id;sensor_type;location;lat;lon;timestamp;P1;durP1;ratioP1;P2;durP2;ratioP2
48014;SDS011;33780;51.034;7.120;2022-08-19T00:01:28;11.15;;;6.40;;
48014;SDS011;33780;51.034;7.120;2022-08-19T00:03:55;10.13;;;7.00;;
48014;SDS011;33780;51.034;7.120;2022-08-19T00:06:25;8.88;;;5.95;;
48014;SDS011;33780;51.034;7.120;2022-08-19T00:08:52;10.77;;;7.07;;
48014;SDS011;33780;51.034;7.120;2022-08-19T00:11:17;10.07;;;6.60;;
48014;SDS011;33780;51.034;7.120;2022-08-19T00:13:43;10.43;;;6.47;;
48014;SDS011;33780;51.034;7.120;2022-08-19T00:16:10;12.38;;;6.72;;
48014;SDS011;33780;51.034;7.120;2022-08-19T00:18:36;9.88;;;6.30;;
48014;SDS011;33780;51.034;7.120;2022-08-19T00:21:01;9.88;;;6.93;;
48014;SDS011;33780;51.034;7.120;2022-08-19T00:23:28;9.73;;;6.40;;
48014;SDS011;33780;51.034;7.120;2022-08-19T00:25:53;9.98;;;6.55;;
48014;SDS011;33780;51.034;7.120;2022-08-19T00:28:19;10.55;;;6.93;;
48014;SDS011;33780;51.034;7.120;2022-08-19T00:30:45;10.18;;;6.28;;
48014;SDS011;33780;51.034;7.120;2022-08-19T00:33:11;10.57;;;6.53;;
48014;SDS011;33780;51.034;7.120;2022-08-19T00:35:36;10.73;;;6.93;;
48014;SDS011;33780;51.034;7.120;2022-08-19T00:38:03;9.55;;;6.43;;
48014;SDS011;33780;51.034;7.120;2022-08-19T00:40:30;10.60;;;6.43;;
48014;SDS011;33780;51.034;7.120;2022-08-19T00:42:56;10.93;;;6.80;;
48014;SDS011;33780;51.034;7.120;2022-08-19T00:45:22;10.63;;;6.88;;
48014;SDS011;33780;51.034;7.120;2022-08-19T00:47:50;11.45;;;6.38;;
48014;SDS011;33780;51.034;7.120;2022-08-19T00:50:17;10.18;;;6.68;;
48014;SDS011;33780;51.034;7.120;2022-08-19T00:52:46;9.52;;;6.45;;
48014;SDS011;33780;51.034;7.120;2022-08-19T00:55:21;10.80;;;6.78;;
48014;SDS011;33780;51.034;7.120;2022-08-19T00:57:53;9.68;;;6.25;;
48014;SDS011;33780;51.034;7.120;2022-08-19T01:02:48;11.20;;;7.07;;
48014;SDS011;33780;51.034;7.120;2022-08-19T01:05:17;10.07;;;6.60;;
48014;SDS011;33780;51.034;7.120;2022-08-19T01:07:46;8.85;;;6.00;;
48014;SDS011;33780;51.034;7.120;2022-08-19T01:10:14;9.48;;;5.93;;
48014;SDS011;33780;51.034;7.120;2022-08-19T01:12:41;9.77;;;6.50;;
48014;SDS011;33780;51.034;7.120;2022-08-19T01:15:07;8.80;;;6.25;;
48014;SDS011;33780;51.034;7.120;2022-08-19T01:17:36;11.38;;;6.85;;
48014;SDS011;33780;51.034;7.120;2022-08-19T01:20:04;9.77;;;6.50;;
48014;SDS011;33780;51.034;7.120;2022-08-19T01:22:34;10.05;;;6.40;;
48014;SDS011;33780;51.034;7.120;2022-08-19T01:25:08;11.52;;;6.70;;
48014;SDS011;33780;51.034;7.120;2022-08-19T01:27:37;10.57;;;6.60;;
48014;SDS011;33780;51.034;7.120;2022-08-19T01:30:04;10.23;;;6.50;;
48014;SDS011;33780;51.034;7.120;2022-08-19T01:32:31;10.93;;;6.55;;
48014;SDS011;33780;51.034;7.120;2022-08-19T01:34:56;11.18;;;6.47;;
48014;SDS011;33780;51.034;7.120;2022-08-19T01:37:22;10.13;;;6.95;;
48014;SDS011;33780;51.034;7.120;2022-08-19T01:39:48;10.98;;;6.30;;
48014;SDS011;33780;51.034;7.120;2022-08-19T01:42:14;10.75;;;6.43;;
48014;SDS011;33780;51.034;7.120;2022-08-19T01:44:39;9.23;;;5.95;;
48014;SDS011;33780;51.034;7.120;2022-08-19T01:47:06;9.77;;;5.90;;
48014;SDS011;33780;51.034;7.120;2022-08-19T01:49:34;10.02;;;6.05;;
48014;SDS011;33780;51.034;7.120;2022-08-19T01:52:00;9.73;;;6.38;;
48014;SDS011;33780;51.034;7.120;2022-08-19T01:54:26;11.30;;;6.40;;
48014;SDS011;33780;51.034;7.120;2022-08-19T01:56:52;10.48;;;6.32;;
48014;SDS011;33780;51.034;7.120;2022-08-19T01:59:22;10.65;;;6.10;;
48014;SDS011;33780;51.034;7.120;2022-08-19T02:01:49;10.50;;;6.65;;
48014;SDS011;33780;51.034;7.120;2022-08-19T02:04:14;10.43;;;6.47;;
48014;SDS011;33780;51.034;7.120;2022-08-19T02:06:40;10.18;;;6.28;;
48014;SDS011;33780;51.034;7.120;2022-08-19T02:09:05;9.20;;;6.05;;
48014;SDS011;33780;51.034;7.120;2022-08-19T02:11:32;8.77;;;6.07;;
48014;SDS011;33780;51.034;7.120;2022-08-19T02:13:59;9.25;;;6.20;;
48014;SDS011;33780;51.034;7.120;2022-08-19T02:16:29;11.70;;;6.40;;
48014;SDS011;33780;51.034;7.120;2022-08-19T02:18:55;9.32;;;6.07;;
48014;SDS011;33780;51.034;7.120;2022-08-19T02:21:21;9.55;;;6.10;;
48014;SDS011;33780;51.034;7.120;2022-08-19T02:23:48;10.52;;;6.90;;
48014;SDS011;33780;51.034;7.120;2022-08-19T02:26:14;10.73;;;6.53;;
48014;SDS011;33780;51.034;7.120;2022-08-19T02:28:42;9.25;;;6.00;;
48014;SDS011;33780;51.034;7.120;2022-08-19T02:31:11;11.48;;;6.40;;
48014;SDS011;33780;51.034;7.120;2022-08-19T02:33:39;9.70;;;6.10;;
48014;SDS011;33780;51.034;7.120;2022-08-19T02:36:06;9.10;;;5.70;;
48014;SDS011;33780;51.034;7.120;2022-08-19T02:38:33;9.40;;;6.00;;
48014;SDS011;33780;51.034;7.120;2022-08-19T02:41:00;9.60;;;6.07;;
48014;SDS011;33780;51.034;7.120;2022-08-19T02:43:29;9.13;;;5.95;;
48014;SDS011;33780;51.034;7.120;2022-08-19T02:45:55;9.07;;;5.85;;
48014;SDS011;33780;51.034;7.120;2022-08-19T02:48:22;10.13;;;5.78;;
48014;SDS011;33780;51.034;7.120;2022-08-19T02:50:50;12.05;;;6.13;;
48014;SDS011;33780;51.034;7.120;2022-08-19T02:53:20;9.85;;;6.05;;
48014;SDS011;33780;51.034;7.120;2022-08-19T02:55:48;8.43;;;5.60;;
48014;SDS011;33780;51.034;7.120;2022-08-19T02:58:14;9.77;;;5.90;;
48014;SDS011;33780;51.034;7.120;2022-08-19T03:00:45;9.52;;;5.95;;
48014;SDS011;33780;51.034;7.120;2022-08-19T03:03:12;8.63;;;6.03;;
48014;SDS011;33780;51.034;7.120;2022-08-19T03:05:38;9.35;;;6.05;;
48014;SDS011;33780;51.034;7.120;2022-08-19T03:08:04;10.70;;;6.53;;
48014;SDS011;33780;51.034;7.120;2022-08-19T03:10:30;9.45;;;5.85;;
48014;SDS011;33780;51.034;7.120;2022-08-19T03:12:57;10.02;;;5.93;;
48014;SDS011;33780;51.034;7.120;2022-08-19T03:15:22;9.25;;;5.85;;
48014;SDS011;33780;51.034;7.120;2022-08-19T03:17:47;7.95;;;5.25;;
48014;SDS011;33780;51.034;7.120;2022-08-19T03:20:12;9.88;;;6.05;;
48014;SDS011;33780;51.034;7.120;2022-08-19T03:22:38;8.55;;;5.78;;
48014;SDS011;33780;51.034;7.120;2022-08-19T03:25:03;7.80;;;5.32;;
48014;SDS011;33780;51.034;7.120;2022-08-19T03:27:29;9.77;;;6.30;;
48014;SDS011;33780;51.034;7.120;2022-08-19T03:29:54;8.80;;;5.53;;
48014;SDS011;33780;51.034;7.120;2022-08-19T03:32:20;8.30;;;5.80;;
48014;SDS011;33780;51.034;7.120;2022-08-19T03:34:46;9.55;;;5.88;;
48014;SDS011;33780;51.034;7.120;2022-08-19T03:37:12;8.93;;;5.70;;
48014;SDS011;33780;51.034;7.120;2022-08-19T03:39:38;10.07;;;5.50;;
48014;SDS011;33780;51.034;7.120;2022-08-19T03:42:04;9.68;;;5.93;;
48014;SDS011;33780;51.034;7.120;2022-08-19T03:44:30;10.02;;;5.60;;
48014;SDS011;33780;51.034;7.120;2022-08-19T03:46:58;9.77;;;5.53;;
48014;SDS011;33780;51.034;7.120;2022-08-19T03:49:26;10.55;;;6.10;;
48014;SDS011;33780;51.034;7.120;2022-08-19T03:51:54;9.88;;;6.05;;
48014;SDS011;33780;51.034;7.120;2022-08-19T03:54:22;8.93;;;5.65;;
48014;SDS011;33780;51.034;7.120;2022-08-19T03:56:49;10.45;;;5.60;;
48014;SDS011;33780;51.034;7.120;2022-08-19T03:59:20;8.70;;;5.68;;
48014;SDS011;33780;51.034;7.120;2022-08-19T04:01:51;8.98;;;5.35;;
48014;SDS011;33780;51.034;7.120;2022-08-19T04:04:17;8.38;;;5.47;;
48014;SDS011;33780;51.034;7.120;2022-08-19T04:06:43;9.43;;;5.95;;
48014;SDS011;33780;51.034;7.120;2022-08-19T04:09:10;8.38;;;5.43;;
48014;SDS011;33780;51.034;7.120;2022-08-19T04:11:38;8.57;;;5.65;;
48014;SDS011;33780;51.034;7.120;2022-08-19T04:14:07;8.18;;;5.32;;
48014;SDS011;33780;51.034;7.120;2022-08-19T04:16:33;10.82;;;5.90;;
48014;SDS011;33780;51.034;7.120;2022-08-19T04:19:02;9.85;;;5.80;;
48014;SDS011;33780;51.034;7.120;2022-08-19T04:21:30;8.63;;;5.50;;
48014;SDS011;33780;51.034;7.120;2022-08-19T04:23:56;9.07;;;5.72;;
48014;SDS011;33780;51.034;7.120;2022-08-19T04:26:23;8.98;;;5.70;;
48014;SDS011;33780;51.034;7.120;2022-08-19T04:28:49;9.05;;;5.30;;
48014;SDS011;33780;51.034;7.120;2022-08-19T04:31:24;9.57;;;6.15;;
48014;SDS011;33780;51.034;7.120;2022-08-19T04:33:52;10.18;;;6.00;;
48014;SDS011;33780;51.034;7.120;2022-08-19T04:36:28;8.63;;;5.32;;
48014;SDS011;33780;51.034;7.120;2022-08-19T04:38:56;7.78;;;5.28;;
48014;SDS011;33780;51.034;7.120;2022-08-19T04:41:25;11.27;;;5.80;;
48014;SDS011;33780;51.034;7.120;2022-08-19T04:44:10;9.55;;;5.45;;
48014;SDS011;33780;51.034;7.120;2022-08-19T04:46:37;8.15;;;5.57;;
48014;SDS011;33780;51.034;7.120;2022-08-19T04:49:10;9.07;;;5.43;;
48014;SDS011;33780;51.034;7.120;2022-08-19T04:51:36;9.10;;;5.65;;
48014;SDS011;33780;51.034;7.120;2022-08-19T04:54:02;9.88;;;5.57;;
48014;SDS011;33780;51.034;7.120;2022-08-19T04:56:30;8.50;;;5.80;;
48014;SDS011;33780;51.034;7.120;2022-08-19T04:58:56;8.88;;;5.60;;
48014;SDS011;33780;51.034;7.120;2022-08-19T05:01:23;8.38;;;5.35;;
48014;SDS011;33780;51.034;7.120;2022-08-19T05:03:58;9.07;;;5.47;;
48014;SDS011;33780;51.034;7.120;2022-08-19T05:06:25;8.38;;;5.38;;
48014;SDS011;33780;51.034;7.120;2022-08-19T05:08:53;8.73;;;5.38;;
48014;SDS011;33780;51.034;7.120;2022-08-19T05:11:24;9.27;;;5.38;;
48014;SDS011;33780;51.034;7.120;2022-08-19T05:13:51;9.60;;;5.30;;
48014;SDS011;33780;51.034;7.120;2022-08-19T05:16:17;8.25;;;5.15;;
48014;SDS011;33780;51.034;7.120;2022-08-19T05:18:44;9.48;;;5.30;;
48014;SDS011;33780;51.034;7.120;2022-08-19T05:21:29;8.30;;;5.45;;
48014;SDS011;33780;51.034;7.120;2022-08-19T05:24:13;8.65;;;5.22;;
48014;SDS011;33780;51.034;7.120;2022-08-19T05:26:43;8.30;;;5.03;;
48014;SDS011;33780;51.034;7.120;2022-08-19T05:29:11;9.63;;;5.28;;
48014;SDS011;33780;51.034;7.120;2022-08-19T05:31:38;9.27;;;5.57;;
48014;SDS011;33780;51.034;7.120;2022-08-19T05:34:11;8.70;;;4.95;;
48014;SDS011;33780;51.034;7.120;2022-08-19T05:36:38;8.75;;;5.10;;
48014;SDS011;33780;51.034;7.120;2022-08-19T05:39:10;7.93;;;5.15;;
48014;SDS011;33780;51.034;7.120;2022-08-19T05:41:40;10.80;;;5.93;;
48014;SDS011;33780;51.034;7.120;2022-08-19T05:44:10;9.38;;;5.90;;
48014;SDS011;33780;51.034;7.120;2022-08-19T05:46:36;8.85;;;5.32;;
48014;SDS011;33780;51.034;7.120;2022-08-19T05:49:06;8.52;;;5.28;;
48014;SDS011;33780;51.034;7.120;2022-08-19T05:51:33;10.10;;;5.35;;
48014;SDS011;33780;51.034;7.120;2022-08-19T05:54:01;8.65;;;5.32;;
48014;SDS011;33780;51.034;7.120;2022-08-19T05:56:27;8.30;;;5.75;;
48014;SDS011;33780;51.034;7.120;2022-08-19T05:58:55;10.65;;;5.63;;
48014;SDS011;33780;51.034;7.120;2022-08-19T06:01:20;9.73;;;5.60;;
48014;SDS011;33780;51.034;7.120;2022-08-19T06:03:45;8.07;;;5.00;;
48014;SDS011;33780;51.034;7.120;2022-08-19T06:06:13;9.82;;;5.20;;
48014;SDS011;33780;51.034;7.120;2022-08-19T06:08:40;8.52;;;5.57;;
48014;SDS011;33780;51.034;7.120;2022-08-19T06:13:45;8.63;;;5.38;;
48014;SDS011;33780;51.034;7.120;2022-08-19T06:16:17;8.77;;;5.13;;
48014;SDS011;33780;51.034;7.120;2022-08-19T06:18:45;8.27;;;5.28;;
48014;SDS011;33780;51.034;7.120;2022-08-19T06:21:11;9.18;;;5.47;;
48014;SDS011;33780;51.034;7.120;2022-08-19T06:23:36;10.43;;;5.60;;
48014;SDS011;33780;51.034;7.120;2022-08-19T06:26:04;8.50;;;5.68;;
48014;SDS011;33780;51.034;7.120;2022-08-19T06:28:29;8.88;;;5.18;;
48014;SDS011;33780;51.034;7.120;2022-08-19T06:30:55;8.57;;;5.38;;
48014;SDS011;33780;51.034;7.120;2022-08-19T06:33:20;8.60;;;5.38;;
48014;SDS011;33780;51.034;7.120;2022-08-19T06:35:51;7.32;;;4.80;;
48014;SDS011;33780;51.034;7.120;2022-08-19T06:38:16;8.40;;;5.30;;
48014;SDS011;33780;51.034;7.120;2022-08-19T06:40:41;9.43;;;6.15;;
48014;SDS011;33780;51.034;7.120;2022-08-19T06:43:07;8.27;;;5.63;;
48014;SDS011;33780;51.034;7.120;2022-08-19T06:45:32;8.48;;;4.93;;
48014;SDS011;33780;51.034;7.120;2022-08-19T06:47:57;8.77;;;5.40;;
48014;SDS011;33780;51.034;7.120;2022-08-19T06:50:23;8.35;;;5.80;;
48014;SDS011;33780;51.034;7.120;2022-08-19T06:52:49;9.02;;;5.57;;
48014;SDS011;33780;51.034;7.120;2022-08-19T06:55:15;6.97;;;4.97;;
48014;SDS011;33780;51.034;7.120;2022-08-19T06:57:40;9.38;;;5.47;;
48014;SDS011;33780;51.034;7.120;2022-08-19T07:00:07;9.10;;;5.53;;
48014;SDS011;33780;51.034;7.120;2022-08-19T07:02:38;10.57;;;6.22;;
48014;SDS011;33780;51.034;7.120;2022-08-19T07:05:03;10.88;;;5.95;;
48014;SDS011;33780;51.034;7.120;2022-08-19T07:07:29;10.88;;;6.30;;
48014;SDS011;33780;51.034;7.120;2022-08-19T07:09:56;11.77;;;6.40;;
48014;SDS011;33780;51.034;7.120;2022-08-19T07:12:21;10.18;;;5.53;;
48014;SDS011;33780;51.034;7.120;2022-08-19T07:14:47;10.07;;;6.10;;
48014;SDS011;33780;51.034;7.120;2022-08-19T07:17:13;10.82;;;6.95;;
48014;SDS011;33780;51.034;7.120;2022-08-19T07:19:39;13.07;;;7.20;;
48014;SDS011;33780;51.034;7.120;2022-08-19T07:22:05;14.07;;;8.93;;
48014;SDS011;33780;51.034;7.120;2022-08-19T07:24:31;21.98;;;11.93;;
48014;SDS011;33780;51.034;7.120;2022-08-19T07:26:58;24.95;;;13.32;;
48014;SDS011;33780;51.034;7.120;2022-08-19T07:29:28;23.52;;;13.15;;
48014;SDS011;33780;51.034;7.120;2022-08-19T07:31:55;23.95;;;12.90;;
48014;SDS011;33780;51.034;7.120;2022-08-19T07:34:22;27.60;;;12.95;;
48014;SDS011;33780;51.034;7.120;2022-08-19T07:36:48;25.15;;;12.95;;
48014;SDS011;33780;51.034;7.120;2022-08-19T07:39:17;21.20;;;11.52;;
48014;SDS011;33780;51.034;7.120;2022-08-19T07:41:46;26.05;;;13.35;;
48014;SDS011;33780;51.034;7.120;2022-08-19T07:44:12;24.00;;;12.32;;
48014;SDS011;33780;51.034;7.120;2022-08-19T07:46:40;20.13;;;11.93;;
48014;SDS011;33780;51.034;7.120;2022-08-19T07:49:09;20.98;;;11.70;;
48014;SDS011;33780;51.034;7.120;2022-08-19T07:51:44;21.50;;;11.35;;
48014;SDS011;33780;51.034;7.120;2022-08-19T07:54:30;21.02;;;11.43;;
48014;SDS011;33780;51.034;7.120;2022-08-19T07:56:59;23.60;;;12.30;;
48014;SDS011;33780;51.034;7.120;2022-08-19T07:59:25;23.10;;;12.00;;
48014;SDS011;33780;51.034;7.120;2022-08-19T08:01:50;24.90;;;11.88;;
48014;SDS011;33780;51.034;7.120;2022-08-19T08:04:17;21.33;;;10.98;;
48014;SDS011;33780;51.034;7.120;2022-08-19T08:07:03;22.63;;;11.05;;
48014;SDS011;33780;51.034;7.120;2022-08-19T08:09:47;23.35;;;11.30;;
48014;SDS011;33780;51.034;7.120;2022-08-19T08:12:15;19.65;;;10.35;;
48014;SDS011;33780;51.034;7.120;2022-08-19T08:14:47;21.05;;;10.63;;
48014;SDS011;33780;51.034;7.120;2022-08-19T08:17:15;22.75;;;11.05;;
48014;SDS011;33780;51.034;7.120;2022-08-19T08:19:42;23.83;;;10.68;;
48014;SDS011;33780;51.034;7.120;2022-08-19T08:22:09;22.00;;;11.00;;
48014;SDS011;33780;51.034;7.120;2022-08-19T08:24:56;19.73;;;10.68;;
48014;SDS011;33780;51.034;7.120;2022-08-19T08:29:56;21.05;;;11.55;;
48014;SDS011;33780;51.034;7.120;2022-08-19T08:32:22;26.30;;;11.90;;
48014;SDS011;33780;51.034;7.120;2022-08-19T08:34:47;20.63;;;10.63;;
48014;SDS011;33780;51.034;7.120;2022-08-19T08:37:13;21.27;;;12.30;;
48014;SDS011;33780;51.034;7.120;2022-08-19T08:39:38;21.95;;;10.98;;
48014;SDS011;33780;51.034;7.120;2022-08-19T08:42:12;19.45;;;10.77;;
48014;SDS011;33780;51.034;7.120;2022-08-19T08:44:56;17.17;;;9.07;;
48014;SDS011;33780;51.034;7.120;2022-08-19T08:47:24;21.10;;;9.70;;
48014;SDS011;33780;51.034;7.120;2022-08-19T08:50:13;20.13;;;9.48;;
48014;SDS011;33780;51.034;7.120;2022-08-19T08:52:47;19.92;;;9.05;;
48014;SDS011;33780;51.034;7.120;2022-08-19T08:57:50;15.02;;;8.15;;
48014;SDS011;33780;51.034;7.120;2022-08-19T09:00:22;18.17;;;9.52;;
48014;SDS011;33780;51.034;7.120;2022-08-19T09:02:53;19.02;;;9.32;;
48014;SDS011;33780;51.034;7.120;2022-08-19T09:05:22;18.63;;;10.00;;
48014;SDS011;33780;51.034;7.120;2022-08-19T09:08:02;17.48;;;9.02;;
48014;SDS011;33780;51.034;7.120;2022-08-19T09:13:11;18.13;;;9.65;;
48014;SDS011;33780;51.034;7.120;2022-08-19T09:16:21;20.52;;;9.90;;
48014;SDS011;33780;51.034;7.120;2022-08-19T09:18:53;21.98;;;10.93;;
48014;SDS011;33780;51.034;7.120;2022-08-19T09:21:22;21.73;;;10.82;;
48014;SDS011;33780;51.034;7.120;2022-08-19T09:23:48;18.75;;;8.77;;
48014;SDS011;33780;51.034;7.120;2022-08-19T09:26:15;20.58;;;9.95;;
48014;SDS011;33780;51.034;7.120;2022-08-19T09:28:44;18.67;;;9.82;;
48014;SDS011;33780;51.034;7.120;2022-08-19T09:31:14;22.27;;;11.40;;
48014;SDS011;33780;51.034;7.120;2022-08-19T09:33:47;19.63;;;10.15;;
48014;SDS011;33780;51.034;7.120;2022-08-19T09:36:14;17.02;;;9.35;;
48014;SDS011;33780;51.034;7.120;2022-08-19T09:38:40;16.60;;;8.95;;
48014;SDS011;33780;51.034;7.120;2022-08-19T09:41:06;22.42;;;10.45;;
48014;SDS011;33780;51.034;7.120;2022-08-19T09:43:34;20.20;;;10.68;;
48014;SDS011;33780;51.034;7.120;2022-08-19T09:46:02;21.20;;;10.57;;
48014;SDS011;33780;51.034;7.120;2022-08-19T09:48:30;22.15;;;10.63;;
48014;SDS011;33780;51.034;7.120;2022-08-19T09:51:02;22.42;;;11.23;;
48014;SDS011;33780;51.034;7.120;2022-08-19T09:53:28;19.33;;;10.38;;
48014;SDS011;33780;51.034;7.120;2022-08-19T09:55:57;21.65;;;12.15;;
48014;SDS011;33780;51.034;7.120;2022-08-19T09:58:22;29.27;;;12.77;;
48014;SDS011;33780;51.034;7.120;2022-08-19T10:00:52;18.92;;;10.20;;
48014;SDS011;33780;51.034;7.120;2022-08-19T10:03:18;23.40;;;11.52;;
48014;SDS011;33780;51.034;7.120;2022-08-19T10:05:44;19.73;;;10.48;;
48014;SDS011;33780;51.034;7.120;2022-08-19T10:08:25;26.42;;;11.85;;
48014;SDS011;33780;51.034;7.120;2022-08-19T10:10:52;25.50;;;11.20;;
48014;SDS011;33780;51.034;7.120;2022-08-19T10:13:19;22.52;;;10.30;;
48014;SDS011;33780;51.034;7.120;2022-08-19T10:15:49;20.70;;;9.27;;
48014;SDS011;33780;51.034;7.120;2022-08-19T10:18:17;28.55;;;11.93;;
48014;SDS011;33780;51.034;7.120;2022-08-19T10:20:45;19.48;;;10.23;;
48014;SDS011;33780;51.034;7.120;2022-08-19T10:23:12;19.92;;;10.40;;
48014;SDS011;33780;51.034;7.120;2022-08-19T10:25:38;20.48;;;10.65;;
48014;SDS011;33780;51.034;7.120;2022-08-19T10:28:03;18.33;;;10.10;;
48014;SDS011;33780;51.034;7.120;2022-08-19T10:30:31;16.90;;;8.57;;
48014;SDS011;33780;51.034;7.120;2022-08-19T10:32:57;14.43;;;7.80;;
48014;SDS011;33780;51.034;7.120;2022-08-19T10:35:22;15.63;;;8.05;;
48014;SDS011;33780;51.034;7.120;2022-08-19T10:37:47;14.30;;;7.68;;
48014;SDS011;33780;51.034;7.120;2022-08-19T10:40:13;15.38;;;8.55;;
48014;SDS011;33780;51.034;7.120;2022-08-19T10:42:38;16.40;;;9.43;;
48014;SDS011;33780;51.034;7.120;2022-08-19T10:45:04;16.42;;;8.25;;
48014;SDS011;33780;51.034;7.120;2022-08-19T10:47:31;15.80;;;8.73;;
48014;SDS011;33780;51.034;7.120;2022-08-19T10:49:57;15.82;;;9.30;;
48014;SDS011;33780;51.034;7.120;2022-08-19T10:52:44;14.80;;;7.88;;
48014;SDS011;33780;51.034;7.120;2022-08-19T10:55:11;13.10;;;7.72;;
48014;SDS011;33780;51.034;7.120;2022-08-19T10:58:03;14.98;;;7.63;;
48014;SDS011;33780;51.034;7.120;2022-08-19T11:00:28;11.15;;;6.40;;
48014;SDS011;33780;51.034;7.120;2022-08-19T11:02:59;13.93;;;7.47;;
48014;SDS011;33780;51.034;7.120;2022-08-19T11:05:24;13.80;;;7.47;;
48014;SDS011;33780;51.034;7.120;2022-08-19T11:07:49;11.55;;;7.00;;
48014;SDS011;33780;51.034;7.120;2022-08-19T11:10:16;12.45;;;6.82;;
48014;SDS011;33780;51.034;7.120;2022-08-19T11:12:44;12.60;;;7.47;;
48014;SDS011;33780;51.034;7.120;2022-08-19T11:15:11;13.77;;;7.03;;
48014;SDS011;33780;51.034;7.120;2022-08-19T11:17:39;12.77;;;7.55;;
48014;SDS011;33780;51.034;7.120;2022-08-19T11:20:09;11.50;;;6.97;;
48014;SDS011;33780;51.034;7.120;2022-08-19T11:22:37;11.40;;;6.65;;
48014;SDS011;33780;51.034;7.120;2022-08-19T11:25:10;10.25;;;6.30;;
48014;SDS011;33780;51.034;7.120;2022-08-19T11:27:42;10.60;;;6.10;;
48014;SDS011;33780;51.034;7.120;2022-08-19T11:30:11;9.35;;;5.93;;
48014;SDS011;33780;51.034;7.120;2022-08-19T11:32:37;8.88;;;5.45;;
48014;SDS011;33780;51.034;7.120;2022-08-19T11:35:03;9.75;;;5.65;;
48014;SDS011;33780;51.034;7.120;2022-08-19T11:37:29;10.60;;;5.72;;
48014;SDS011;33780;51.034;7.120;2022-08-19T11:39:54;8.70;;;5.93;;
48014;SDS011;33780;51.034;7.120;2022-08-19T11:42:20;9.75;;;5.88;;
48014;SDS011;33780;51.034;7.120;2022-08-19T11:45:04;11.98;;;6.60;;
48014;SDS011;33780;51.034;7.120;2022-08-19T11:47:29;7.25;;;5.03;;
48014;SDS011;33780;51.034;7.120;2022-08-19T11:49:55;9.02;;;5.82;;
48014;SDS011;33780;51.034;7.120;2022-08-19T11:52:21;10.27;;;6.05;;
48014;SDS011;33780;51.034;7.120;2022-08-19T11:54:46;9.63;;;5.50;;
48014;SDS011;33780;51.034;7.120;2022-08-19T11:57:11;8.75;;;5.40;;
48014;SDS011;33780;51.034;7.120;2022-08-19T11:59:39;10.40;;;6.35;;
48014;SDS011;33780;51.034;7.120;2022-08-19T12:02:05;11.20;;;6.15;;
48014;SDS011;33780;51.034;7.120;2022-08-19T12:04:30;10.98;;;6.45;;
48014;SDS011;33780;51.034;7.120;2022-08-19T12:06:55;11.05;;;6.72;;
48014;SDS011;33780;51.034;7.120;2022-08-19T12:09:21;9.30;;;5.93;;
48014;SDS011;33780;51.034;7.120;2022-08-19T12:11:47;8.55;;;5.55;;
48014;SDS011;33780;51.034;7.120;2022-08-19T12:14:12;8.82;;;5.63;;
48014;SDS011;33780;51.034;7.120;2022-08-19T12:16:39;9.93;;;5.22;;
48014;SDS011;33780;51.034;7.120;2022-08-19T12:19:06;9.93;;;6.15;;
48014;SDS011;33780;51.034;7.120;2022-08-19T12:21:33;8.88;;;5.95;;
48014;SDS011;33780;51.034;7.120;2022-08-19T12:24:00;9.30;;;5.53;;
48014;SDS011;33780;51.034;7.120;2022-08-19T12:26:27;9.40;;;5.57;;
48014;SDS011;33780;51.034;7.120;2022-08-19T12:28:54;11.20;;;5.90;;
48014;SDS011;33780;51.034;7.120;2022-08-19T12:31:20;10.00;;;5.40;;
48014;SDS011;33780;51.034;7.120;2022-08-19T12:33:45;17.02;;;6.38;;
48014;SDS011;33780;51.034;7.120;2022-08-19T12:36:12;7.35;;;4.97;;
48014;SDS011;33780;51.034;7.120;2022-08-19T12:38:39;8.32;;;5.20;;
48014;SDS011;33780;51.034;7.120;2022-08-19T12:41:06;6.25;;;4.45;;
48014;SDS011;33780;51.034;7.120;2022-08-19T12:43:34;8.45;;;4.82;;
48014;SDS011;33780;51.034;7.120;2022-08-19T12:45:59;7.13;;;5.03;;
48014;SDS011;33780;51.034;7.120;2022-08-19T12:48:25;6.90;;;4.13;;
48014;SDS011;33780;51.034;7.120;2022-08-19T12:50:50;7.32;;;4.60;;
48014;SDS011;33780;51.034;7.120;2022-08-19T12:53:16;6.13;;;3.90;;
48014;SDS011;33780;51.034;7.120;2022-08-19T12:55:41;6.47;;;3.92;;
48014;SDS011;33780;51.034;7.120;2022-08-19T12:58:08;5.88;;;3.97;;
48014;SDS011;33780;51.034;7.120;2022-08-19T13:00:33;6.20;;;4.20;;
48014;SDS011;33780;51.034;7.120;2022-08-19T13:03:02;5.75;;;3.97;;
48014;SDS011;33780;51.034;7.120;2022-08-19T13:05:28;6.05;;;4.10;;
48014;SDS011;33780;51.034;7.120;2022-08-19T13:07:56;5.75;;;3.67;;
48014;SDS011;33780;51.034;7.120;2022-08-19T13:10:25;6.63;;;3.95;;
48014;SDS011;33780;51.034;7.120;2022-08-19T13:12:52;6.22;;;4.10;;
48014;SDS011;33780;51.034;7.120;2022-08-19T13:15:19;6.70;;;3.92;;
48014;SDS011;33780;51.034;7.120;2022-08-19T13:17:45;6.38;;;3.85;;
48014;SDS011;33780;51.034;7.120;2022-08-19T13:20:16;6.20;;;4.20;;
48014;SDS011;33780;51.034;7.120;2022-08-19T13:22:43;6.03;;;4.13;;
48014;SDS011;33780;51.034;7.120;2022-08-19T13:25:09;6.38;;;4.00;;
48014;SDS011;33780;51.034;7.120;2022-08-19T13:27:36;9.68;;;4.07;;
48014;SDS011;33780;51.034;7.120;2022-08-19T13:30:02;6.85;;;3.92;;
48014;SDS011;33780;51.034;7.120;2022-08-19T13:32:47;5.68;;;3.53;;
48014;SDS011;33780;51.034;7.120;2022-08-19T13:35:31;7.95;;;3.75;;
48014;SDS011;33780;51.034;7.120;2022-08-19T13:37:56;4.72;;;3.17;;
48014;SDS011;33780;51.034;7.120;2022-08-19T13:40:23;6.05;;;3.55;;
48014;SDS011;33780;51.034;7.120;2022-08-19T13:42:51;7.07;;;3.97;;
48014;SDS011;33780;51.034;7.120;2022-08-19T13:45:19;6.32;;;3.60;;
48014;SDS011;33780;51.034;7.120;2022-08-19T13:47:47;6.18;;;3.35;;
48014;SDS011;33780;51.034;7.120;2022-08-19T13:50:16;5.97;;;3.63;;
48014;SDS011;33780;51.034;7.120;2022-08-19T13:52:44;5.50;;;3.30;;
48014;SDS011;33780;51.034;7.120;2022-08-19T13:55:11;5.15;;;3.08;;
48014;SDS011;33780;51.034;7.120;2022-08-19T13:57:36;6.57;;;3.65;;
48014;SDS011;33780;51.034;7.120;2022-08-19T14:00:06;7.47;;;4.15;;
48014;SDS011;33780;51.034;7.120;2022-08-19T14:02:35;6.30;;;3.72;;
48014;SDS011;33780;51.034;7.120;2022-08-19T14:05:03;8.70;;;3.70;;
48014;SDS011;33780;51.034;7.120;2022-08-19T14:07:29;5.07;;;3.78;;
48014;SDS011;33780;51.034;7.120;2022-08-19T14:09:55;5.95;;;3.47;;
48014;SDS011;33780;51.034;7.120;2022-08-19T14:12:21;6.53;;;3.13;;
48014;SDS011;33780;51.034;7.120;2022-08-19T14:14:46;4.70;;;2.97;;
48014;SDS011;33780;51.034;7.120;2022-08-19T14:17:12;4.97;;;2.88;;
48014;SDS011;33780;51.034;7.120;2022-08-19T14:19:37;3.80;;;2.50;;
48014;SDS011;33780;51.034;7.120;2022-08-19T14:22:03;4.57;;;3.10;;
48014;SDS011;33780;51.034;7.120;2022-08-19T14:24:30;4.97;;;2.90;;
48014;SDS011;33780;51.034;7.120;2022-08-19T14:26:55;6.07;;;2.88;;
48014;SDS011;33780;51.034;7.120;2022-08-19T14:29:22;5.88;;;3.38;;
48014;SDS011;33780;51.034;7.120;2022-08-19T14:31:48;6.13;;;2.95;;
48014;SDS011;33780;51.034;7.120;2022-08-19T14:34:13;4.95;;;2.72;;
48014;SDS011;33780;51.034;7.120;2022-08-19T14:36:38;3.53;;;2.63;;
48014;SDS011;33780;51.034;7.120;2022-08-19T14:39:04;3.58;;;2.40;;
48014;SDS011;33780;51.034;7.120;2022-08-19T14:41:29;4.20;;;2.20;;
48014;SDS011;33780;51.034;7.120;2022-08-19T14:43:55;4.28;;;2.50;;
48014;SDS011;33780;51.034;7.120;2022-08-19T14:46:25;5.28;;;2.70;;
48014;SDS011;33780;51.034;7.120;2022-08-19T14:48:52;3.40;;;2.20;;
48014;SDS011;33780;51.034;7.120;2022-08-19T14:51:19;4.65;;;2.40;;
48014;SDS011;33780;51.034;7.120;2022-08-19T14:53:46;6.88;;;2.50;;
48014;SDS011;33780;51.034;7.120;2022-08-19T14:56:15;4.95;;;2.63;;
48014;SDS011;33780;51.034;7.120;2022-08-19T14:58:43;3.67;;;2.45;;